sensor_id;sensor_type;location;lat;lon;timestamp;P1;durP1;ratioP1;P2;durP2;ratioP2
64282;SDS011;50497;50.720;-2.084;2022-12-24T00:00:23;27.10;;;3.88;;
64282;SDS011;50497;50.720;-2.084;2022-12-24T00:02:56;30.55;;;4.57;;
64282;SDS011;50497;50.720;-2.084;2022-12-24T00:05:24;28.63;;;4.88;;
64282;SDS011;50497;50.720;-2.084;2022-12-24T00:07:50;28.83;;;4.22;;
64282;SDS011;50497;50.720;-2.084;2022-12-24T00:10:16;38.38;;;5.50;;
64282;SDS011;50497;50.720;-2.084;2022-12-24T00:12:42;27.15;;;4.82;;
64282;SDS011;50497;50.720;-2.084;2022-12-24T00:15:10;33.78;;;4.85;;
64282;SDS011;50497;50.720;-2.084;2022-12-24T00:17:38;39.08;;;5.03;;
64282;SDS011;50497;50.720;-2.084;2022-12-24T00:20:04;37.72;;;5.20;;
64282;SDS011;50497;50.720;-2.084;2022-12-24T00:24:55;41.60;;;5.97;;
64282;SDS011;50497;50.720;-2.084;2022-12-24T00:27:24;34.42;;;5.03;;
64282;SDS011;50497;50.720;-2.084;2022-12-24T00:29:50;34.70;;;5.18;;
64282;SDS011;50497;50.720;-2.084;2022-12-24T00:32:20;38.20;;;5.72;;
64282;SDS011;50497;50.720;-2.084;2022-12-24T00:34:55;33.17;;;5.35;;
64282;SDS011;50497;50.720;-2.084;2022-12-24T00:37:23;37.03;;;4.95;;
64282;SDS011;50497;50.720;-2.084;2022-12-24T00:39:52;36.85;;;5.93;;
64282;SDS011;50497;50.720;-2.084;2022-12-24T00:42:18;43.10;;;5.22;;
64282;SDS011;50497;50.720;-2.084;2022-12-24T00:47:20;29.75;;;4.30;;
64282;SDS011;50497;50.720;-2.084;2022-12-24T00:49:45;32.13;;;4.80;;
64282;SDS011;50497;50.720;-2.084;2022-12-24T00:52:15;25.27;;;4.40;;
64282;SDS011;50497;50.720;-2.084;2022-12-24T00:54:40;41.70;;;5.05;;
64282;SDS011;50497;50.720;-2.084;2022-12-24T00:57:06;34.88;;;4.30;;
64282;SDS011;50497;50.720;-2.084;2022-12-24T00:59:34;38.15;;;5.97;;
64282;SDS011;50497;50.720;-2.084;2022-12-24T01:02:01;37.25;;;5.32;;
64282;SDS011;50497;50.720;-2.084;2022-12-24T01:04:36;31.27;;;4.53;;
64282;SDS011;50497;50.720;-2.084;2022-12-24T01:07:20;36.50;;;5.45;;
64282;SDS011;50497;50.720;-2.084;2022-12-24T01:09:46;32.63;;;4.50;;
64282;SDS011;50497;50.720;-2.084;2022-12-24T01:12:16;30.73;;;4.10;;
64282;SDS011;50497;50.720;-2.084;2022-12-24T01:17:09;30.53;;;4.47;;
64282;SDS011;50497;50.720;-2.084;2022-12-24T01:19:35;31.77;;;4.50;;
64282;SDS011;50497;50.720;-2.084;2022-12-24T01:22:04;28.17;;;4.75;;
64282;SDS011;50497;50.720;-2.084;2022-12-24T01:24:36;25.52;;;3.50;;
64282;SDS011;50497;50.720;-2.084;2022-12-24T01:27:02;30.90;;;4.30;;
64282;SDS011;50497;50.720;-2.084;2022-12-24T01:29:28;21.77;;;3.50;;
64282;SDS011;50497;50.720;-2.084;2022-12-24T01:31:57;27.95;;;4.20;;
64282;SDS011;50497;50.720;-2.084;2022-12-24T01:34:23;27.25;;;3.70;;
64282;SDS011;50497;50.720;-2.084;2022-12-24T01:36:52;23.42;;;3.42;;
64282;SDS011;50497;50.720;-2.084;2022-12-24T01:39:25;26.52;;;4.43;;
64282;SDS011;50497;50.720;-2.084;2022-12-24T01:41:55;25.25;;;3.80;;
64282;SDS011;50497;50.720;-2.084;2022-12-24T01:44:46;28.80;;;3.78;;
64282;SDS011;50497;50.720;-2.084;2022-12-24T01:50:02;22.38;;;2.80;;
64282;SDS011;50497;50.720;-2.084;2022-12-24T01:52:42;22.48;;;3.53;;
64282;SDS011;50497;50.720;-2.084;2022-12-24T01:55:12;24.65;;;3.80;;
64282;SDS011;50497;50.720;-2.084;2022-12-24T01:57:43;27.40;;;3.55;;
64282;SDS011;50497;50.720;-2.084;2022-12-24T02:00:14;20.83;;;3.65;;
64282;SDS011;50497;50.720;-2.084;2022-12-24T02:02:41;27.10;;;3.55;;
64282;SDS011;50497;50.720;-2.084;2022-12-24T02:05:11;27.17;;;3.83;;
64282;SDS011;50497;50.720;-2.084;2022-12-24T02:07:40;28.45;;;3.50;;
64282;SDS011;50497;50.720;-2.084;2022-12-24T02:10:13;21.38;;;3.67;;
64282;SDS011;50497;50.720;-2.084;2022-12-24T02:12:42;23.23;;;3.85;;
64282;SDS011;50497;50.720;-2.084;2022-12-24T02:15:18;32.35;;;3.83;;
64282;SDS011;50497;50.720;-2.084;2022-12-24T02:23:32;24.10;;;3.75;;
64282;SDS011;50497;50.720;-2.084;2022-12-24T02:34:06;27.05;;;3.53;;
64282;SDS011;50497;50.720;-2.084;2022-12-24T02:36:45;21.08;;;3.20;;
64282;SDS011;50497;50.720;-2.084;2022-12-24T02:39:19;23.98;;;3.28;;
64282;SDS011;50497;50.720;-2.084;2022-12-24T02:41:53;20.80;;;3.67;;
64282;SDS011;50497;50.720;-2.084;2022-12-24T02:47:27;22.63;;;3.08;;
64282;SDS011;50497;50.720;-2.084;2022-12-24T02:49:56;21.73;;;3.60;;
64282;SDS011;50497;50.720;-2.084;2022-12-24T02:52:33;26.65;;;3.40;;
64282;SDS011;50497;50.720;-2.084;2022-12-24T02:55:04;24.05;;;3.63;;
64282;SDS011;50497;50.720;-2.084;2022-12-24T02:57:49;23.70;;;3.28;;
64282;SDS011;50497;50.720;-2.084;2022-12-24T03:00:25;19.52;;;3.08;;
64282;SDS011;50497;50.720;-2.084;2022-12-24T03:11:10;24.10;;;3.35;;
64282;SDS011;50497;50.720;-2.084;2022-12-24T03:13:42;23.33;;;3.20;;
64282;SDS011;50497;50.720;-2.084;2022-12-24T03:16:13;23.67;;;3.30;;
64282;SDS011;50497;50.720;-2.084;2022-12-24T03:18:42;27.65;;;3.40;;
64282;SDS011;50497;50.720;-2.084;2022-12-24T03:23:51;20.75;;;3.30;;
64282;SDS011;50497;50.720;-2.084;2022-12-24T03:26:17;20.48;;;3.17;;
64282;SDS011;50497;50.720;-2.084;2022-12-24T03:28:49;25.88;;;3.60;;
64282;SDS011;50497;50.720;-2.084;2022-12-24T03:31:16;19.90;;;3.42;;
64282;SDS011;50497;50.720;-2.084;2022-12-24T03:33:43;24.17;;;3.28;;
64282;SDS011;50497;50.720;-2.084;2022-12-24T03:36:09;24.00;;;2.90;;
64282;SDS011;50497;50.720;-2.084;2022-12-24T03:38:35;24.25;;;3.00;;
64282;SDS011;50497;50.720;-2.084;2022-12-24T03:41:03;28.88;;;3.78;;
64282;SDS011;50497;50.720;-2.084;2022-12-24T03:43:29;22.88;;;3.47;;
64282;SDS011;50497;50.720;-2.084;2022-12-24T03:45:55;30.45;;;3.78;;
64282;SDS011;50497;50.720;-2.084;2022-12-24T03:48:31;21.15;;;2.92;;
64282;SDS011;50497;50.720;-2.084;2022-12-24T03:51:00;19.45;;;3.28;;
64282;SDS011;50497;50.720;-2.084;2022-12-24T03:53:26;26.27;;;3.75;;
64282;SDS011;50497;50.720;-2.084;2022-12-24T03:55:52;27.30;;;3.45;;
64282;SDS011;50497;50.720;-2.084;2022-12-24T03:58:17;24.52;;;3.78;;
64282;SDS011;50497;50.720;-2.084;2022-12-24T04:00:44;24.13;;;3.40;;
64282;SDS011;50497;50.720;-2.084;2022-12-24T04:03:09;26.80;;;3.33;;
64282;SDS011;50497;50.720;-2.084;2022-12-24T04:05:38;21.05;;;3.05;;
64282;SDS011;50497;50.720;-2.084;2022-12-24T04:08:07;22.20;;;3.20;;
64282;SDS011;50497;50.720;-2.084;2022-12-24T04:10:37;21.38;;;3.03;;
64282;SDS011;50497;50.720;-2.084;2022-12-24T04:15:28;28.33;;;4.65;;
64282;SDS011;50497;50.720;-2.084;2022-12-24T04:17:53;22.38;;;3.25;;
64282;SDS011;50497;50.720;-2.084;2022-12-24T04:20:20;24.23;;;3.08;;
64282;SDS011;50497;50.720;-2.084;2022-12-24T04:22:45;29.60;;;3.20;;
64282;SDS011;50497;50.720;-2.084;2022-12-24T04:25:13;20.48;;;2.78;;
64282;SDS011;50497;50.720;-2.084;2022-12-24T04:27:42;27.42;;;3.47;;
64282;SDS011;50497;50.720;-2.084;2022-12-24T04:30:12;20.00;;;3.20;;
64282;SDS011;50497;50.720;-2.084;2022-12-24T04:32:40;33.80;;;4.78;;
64282;SDS011;50497;50.720;-2.084;2022-12-24T04:35:06;23.92;;;3.20;;
64282;SDS011;50497;50.720;-2.084;2022-12-24T04:37:35;33.80;;;4.85;;
64282;SDS011;50497;50.720;-2.084;2022-12-24T04:40:07;27.85;;;3.30;;
64282;SDS011;50497;50.720;-2.084;2022-12-24T04:42:33;26.98;;;3.10;;
64282;SDS011;50497;50.720;-2.084;2022-12-24T04:45:01;22.13;;;2.95;;
64282;SDS011;50497;50.720;-2.084;2022-12-24T04:47:29;24.30;;;3.25;;
64282;SDS011;50497;50.720;-2.084;2022-12-24T04:49:55;23.92;;;2.65;;
64282;SDS011;50497;50.720;-2.084;2022-12-24T04:52:21;22.10;;;3.00;;
64282;SDS011;50497;50.720;-2.084;2022-12-24T04:54:47;21.50;;;3.03;;
64282;SDS011;50497;50.720;-2.084;2022-12-24T04:57:15;24.02;;;3.40;;
64282;SDS011;50497;50.720;-2.084;2022-12-24T04:59:46;18.80;;;2.53;;
64282;SDS011;50497;50.720;-2.084;2022-12-24T05:02:12;24.77;;;3.40;;
64282;SDS011;50497;50.720;-2.084;2022-12-24T05:04:37;25.73;;;3.95;;
64282;SDS011;50497;50.720;-2.084;2022-12-24T05:07:03;24.80;;;3.63;;
64282;SDS011;50497;50.720;-2.084;2022-12-24T05:09:32;24.25;;;3.63;;
64282;SDS011;50497;50.720;-2.084;2022-12-24T05:11:58;25.40;;;3.30;;
64282;SDS011;50497;50.720;-2.084;2022-12-24T05:14:31;21.08;;;2.95;;
64282;SDS011;50497;50.720;-2.084;2022-12-24T05:16:57;26.83;;;3.22;;
64282;SDS011;50497;50.720;-2.084;2022-12-24T05:19:32;18.80;;;4.18;;
64282;SDS011;50497;50.720;-2.084;2022-12-24T05:21:59;23.23;;;2.95;;
64282;SDS011;50497;50.720;-2.084;2022-12-24T05:24:50;28.40;;;3.10;;
64282;SDS011;50497;50.720;-2.084;2022-12-24T05:27:34;18.55;;;2.58;;
64282;SDS011;50497;50.720;-2.084;2022-12-24T05:30:00;11.98;;;2.25;;
64282;SDS011;50497;50.720;-2.084;2022-12-24T05:32:28;13.95;;;1.80;;
64282;SDS011;50497;50.720;-2.084;2022-12-24T05:34:55;13.55;;;1.83;;
64282;SDS011;50497;50.720;-2.084;2022-12-24T05:37:24;7.88;;;1.45;;
64282;SDS011;50497;50.720;-2.084;2022-12-24T05:39:49;7.93;;;1.58;;
64282;SDS011;50497;50.720;-2.084;2022-12-24T05:42:16;12.70;;;1.55;;
64282;SDS011;50497;50.720;-2.084;2022-12-24T05:44:41;9.75;;;1.60;;
64282;SDS011;50497;50.720;-2.084;2022-12-24T05:47:07;4.53;;;1.02;;
64282;SDS011;50497;50.720;-2.084;2022-12-24T05:49:36;8.18;;;1.25;;
64282;SDS011;50497;50.720;-2.084;2022-12-24T05:52:03;9.85;;;1.92;;
64282;SDS011;50497;50.720;-2.084;2022-12-24T05:54:29;9.35;;;1.50;;
64282;SDS011;50497;50.720;-2.084;2022-12-24T05:56:58;11.23;;;1.50;;
64282;SDS011;50497;50.720;-2.084;2022-12-24T05:59:27;9.90;;;1.70;;
64282;SDS011;50497;50.720;-2.084;2022-12-24T06:01:53;15.40;;;2.08;;
64282;SDS011;50497;50.720;-2.084;2022-12-24T06:04:21;15.65;;;2.10;;
64282;SDS011;50497;50.720;-2.084;2022-12-24T06:06:47;7.22;;;1.45;;
64282;SDS011;50497;50.720;-2.084;2022-12-24T06:09:15;11.50;;;2.00;;
64282;SDS011;50497;50.720;-2.084;2022-12-24T06:11:42;10.63;;;1.90;;
64282;SDS011;50497;50.720;-2.084;2022-12-24T06:14:13;11.13;;;1.80;;
64282;SDS011;50497;50.720;-2.084;2022-12-24T06:16:41;11.23;;;1.83;;
64282;SDS011;50497;50.720;-2.084;2022-12-24T06:19:10;9.70;;;1.73;;
64282;SDS011;50497;50.720;-2.084;2022-12-24T06:21:42;10.68;;;1.75;;
64282;SDS011;50497;50.720;-2.084;2022-12-24T06:24:10;7.57;;;1.70;;
64282;SDS011;50497;50.720;-2.084;2022-12-24T06:26:37;4.97;;;1.27;;
64282;SDS011;50497;50.720;-2.084;2022-12-24T06:29:06;5.10;;;1.30;;
64282;SDS011;50497;50.720;-2.084;2022-12-24T06:31:39;8.68;;;1.50;;
64282;SDS011;50497;50.720;-2.084;2022-12-24T06:34:13;6.95;;;1.20;;
64282;SDS011;50497;50.720;-2.084;2022-12-24T06:36:44;6.80;;;1.40;;
64282;SDS011;50497;50.720;-2.084;2022-12-24T06:39:18;9.07;;;1.40;;
64282;SDS011;50497;50.720;-2.084;2022-12-24T06:41:47;7.45;;;1.38;;
64282;SDS011;50497;50.720;-2.084;2022-12-24T06:44:16;10.70;;;1.40;;
64282;SDS011;50497;50.720;-2.084;2022-12-24T06:46:48;10.25;;;1.50;;
64282;SDS011;50497;50.720;-2.084;2022-12-24T06:49:17;10.82;;;1.60;;
64282;SDS011;50497;50.720;-2.084;2022-12-24T06:51:46;7.68;;;1.60;;
64282;SDS011;50497;50.720;-2.084;2022-12-24T06:54:17;9.18;;;2.00;;
64282;SDS011;50497;50.720;-2.084;2022-12-24T06:56:50;11.90;;;1.77;;
64282;SDS011;50497;50.720;-2.084;2022-12-24T06:59:15;10.35;;;2.00;;
64282;SDS011;50497;50.720;-2.084;2022-12-24T07:01:45;11.23;;;2.00;;
64282;SDS011;50497;50.720;-2.084;2022-12-24T07:04:11;8.88;;;1.63;;
64282;SDS011;50497;50.720;-2.084;2022-12-24T07:06:42;8.20;;;1.55;;
64282;SDS011;50497;50.720;-2.084;2022-12-24T07:09:08;8.98;;;1.77;;
64282;SDS011;50497;50.720;-2.084;2022-12-24T07:11:40;13.95;;;2.20;;
64282;SDS011;50497;50.720;-2.084;2022-12-24T07:16:34;11.10;;;2.60;;
64282;SDS011;50497;50.720;-2.084;2022-12-24T07:18:59;11.48;;;2.67;;
64282;SDS011;50497;50.720;-2.084;2022-12-24T07:21:35;15.68;;;2.78;;
64282;SDS011;50497;50.720;-2.084;2022-12-24T07:24:08;11.55;;;2.83;;
64282;SDS011;50497;50.720;-2.084;2022-12-24T07:26:34;13.50;;;2.30;;
64282;SDS011;50497;50.720;-2.084;2022-12-24T07:29:06;9.90;;;2.22;;
64282;SDS011;50497;50.720;-2.084;2022-12-24T07:31:32;13.52;;;2.50;;
64282;SDS011;50497;50.720;-2.084;2022-12-24T07:33:58;10.57;;;2.45;;
64282;SDS011;50497;50.720;-2.084;2022-12-24T07:36:23;18.65;;;2.88;;
64282;SDS011;50497;50.720;-2.084;2022-12-24T07:38:52;14.20;;;2.63;;
64282;SDS011;50497;50.720;-2.084;2022-12-24T07:41:19;11.70;;;2.65;;
64282;SDS011;50497;50.720;-2.084;2022-12-24T07:43:45;14.15;;;2.42;;
64282;SDS011;50497;50.720;-2.084;2022-12-24T07:46:11;14.25;;;2.50;;
64282;SDS011;50497;50.720;-2.084;2022-12-24T07:48:43;12.80;;;2.70;;
64282;SDS011;50497;50.720;-2.084;2022-12-24T07:51:10;9.63;;;2.10;;
64282;SDS011;50497;50.720;-2.084;2022-12-24T07:53:36;14.48;;;2.55;;
64282;SDS011;50497;50.720;-2.084;2022-12-24T07:56:01;12.32;;;2.63;;
64282;SDS011;50497;50.720;-2.084;2022-12-24T07:58:27;11.55;;;2.45;;
64282;SDS011;50497;50.720;-2.084;2022-12-24T08:00:59;10.40;;;2.40;;
64282;SDS011;50497;50.720;-2.084;2022-12-24T08:03:25;13.85;;;2.75;;
64282;SDS011;50497;50.720;-2.084;2022-12-24T08:05:54;9.48;;;2.20;;
64282;SDS011;50497;50.720;-2.084;2022-12-24T08:08:20;9.48;;;2.00;;
64282;SDS011;50497;50.720;-2.084;2022-12-24T08:10:46;14.70;;;2.10;;
64282;SDS011;50497;50.720;-2.084;2022-12-24T08:13:17;8.45;;;1.92;;
64282;SDS011;50497;50.720;-2.084;2022-12-24T08:15:46;6.85;;;1.73;;
64282;SDS011;50497;50.720;-2.084;2022-12-24T08:18:12;13.77;;;2.10;;
64282;SDS011;50497;50.720;-2.084;2022-12-24T08:20:41;12.35;;;2.10;;
64282;SDS011;50497;50.720;-2.084;2022-12-24T08:23:07;8.23;;;1.85;;
64282;SDS011;50497;50.720;-2.084;2022-12-24T08:25:33;9.23;;;2.10;;
64282;SDS011;50497;50.720;-2.084;2022-12-24T08:28:03;13.45;;;2.20;;
64282;SDS011;50497;50.720;-2.084;2022-12-24T08:32:58;13.27;;;2.03;;
64282;SDS011;50497;50.720;-2.084;2022-12-24T08:35:27;10.13;;;1.80;;
64282;SDS011;50497;50.720;-2.084;2022-12-24T08:38:02;10.30;;;2.00;;
64282;SDS011;50497;50.720;-2.084;2022-12-24T08:40:29;12.70;;;2.30;;
64282;SDS011;50497;50.720;-2.084;2022-12-24T08:42:55;13.52;;;2.33;;
64282;SDS011;50497;50.720;-2.084;2022-12-24T08:45:27;12.00;;;2.83;;
64282;SDS011;50497;50.720;-2.084;2022-12-24T08:47:57;13.93;;;2.70;;
64282;SDS011;50497;50.720;-2.084;2022-12-24T08:50:23;10.88;;;2.97;;
64282;SDS011;50497;50.720;-2.084;2022-12-24T08:52:53;10.27;;;3.20;;
64282;SDS011;50497;50.720;-2.084;2022-12-24T08:55:18;12.20;;;2.60;;
64282;SDS011;50497;50.720;-2.084;2022-12-24T08:57:43;13.57;;;2.90;;
64282;SDS011;50497;50.720;-2.084;2022-12-24T09:00:12;10.45;;;2.58;;
64282;SDS011;50497;50.720;-2.084;2022-12-24T09:02:38;13.07;;;2.80;;
64282;SDS011;50497;50.720;-2.084;2022-12-24T09:05:03;12.57;;;3.15;;
64282;SDS011;50497;50.720;-2.084;2022-12-24T09:07:29;12.55;;;3.00;;
64282;SDS011;50497;50.720;-2.084;2022-12-24T09:09:55;11.32;;;2.70;;
64282;SDS011;50497;50.720;-2.084;2022-12-24T09:12:21;7.32;;;2.47;;
64282;SDS011;50497;50.720;-2.084;2022-12-24T09:14:49;9.15;;;2.33;;
64282;SDS011;50497;50.720;-2.084;2022-12-24T09:17:15;10.25;;;2.55;;
64282;SDS011;50497;50.720;-2.084;2022-12-24T09:19:46;14.13;;;2.53;;
64282;SDS011;50497;50.720;-2.084;2022-12-24T09:22:17;12.00;;;2.95;;
64282;SDS011;50497;50.720;-2.084;2022-12-24T09:24:47;16.02;;;3.03;;
64282;SDS011;50497;50.720;-2.084;2022-12-24T09:27:16;19.00;;;3.53;;
64282;SDS011;50497;50.720;-2.084;2022-12-24T09:29:45;13.75;;;2.47;;
64282;SDS011;50497;50.720;-2.084;2022-12-24T09:32:12;9.57;;;2.40;;
64282;SDS011;50497;50.720;-2.084;2022-12-24T09:34:38;11.90;;;3.75;;
64282;SDS011;50497;50.720;-2.084;2022-12-24T09:37:04;8.30;;;2.50;;
64282;SDS011;50497;50.720;-2.084;2022-12-24T09:39:29;12.80;;;2.92;;
64282;SDS011;50497;50.720;-2.084;2022-12-24T09:44:44;13.23;;;3.00;;
64282;SDS011;50497;50.720;-2.084;2022-12-24T09:47:28;10.48;;;3.58;;
64282;SDS011;50497;50.720;-2.084;2022-12-24T09:49:58;14.95;;;3.85;;
64282;SDS011;50497;50.720;-2.084;2022-12-24T09:52:34;14.10;;;3.22;;
64282;SDS011;50497;50.720;-2.084;2022-12-24T09:55:22;14.50;;;3.42;;
64282;SDS011;50497;50.720;-2.084;2022-12-24T09:57:56;13.45;;;3.00;;
64282;SDS011;50497;50.720;-2.084;2022-12-24T10:00:26;17.52;;;4.13;;
64282;SDS011;50497;50.720;-2.084;2022-12-24T10:03:05;15.75;;;3.80;;
64282;SDS011;50497;50.720;-2.084;2022-12-24T10:05:40;14.55;;;3.70;;
64282;SDS011;50497;50.720;-2.084;2022-12-24T10:11:02;15.93;;;4.25;;
64282;SDS011;50497;50.720;-2.084;2022-12-24T10:16:05;18.25;;;3.83;;
64282;SDS011;50497;50.720;-2.084;2022-12-24T10:18:43;20.40;;;4.05;;
64282;SDS011;50497;50.720;-2.084;2022-12-24T10:24:11;22.63;;;6.45;;
64282;SDS011;50497;50.720;-2.084;2022-12-24T10:27:02;22.80;;;4.25;;
64282;SDS011;50497;50.720;-2.084;2022-12-24T10:29:35;18.88;;;4.30;;
64282;SDS011;50497;50.720;-2.084;2022-12-24T10:34:42;17.13;;;3.60;;
64282;SDS011;50497;50.720;-2.084;2022-12-24T10:37:19;14.68;;;3.03;;
64282;SDS011;50497;50.720;-2.084;2022-12-24T10:39:47;17.85;;;3.00;;
64282;SDS011;50497;50.720;-2.084;2022-12-24T10:42:14;20.30;;;3.05;;
64282;SDS011;50497;50.720;-2.084;2022-12-24T10:44:43;12.38;;;2.65;;
64282;SDS011;50497;50.720;-2.084;2022-12-24T10:47:17;13.55;;;3.17;;
64282;SDS011;50497;50.720;-2.084;2022-12-24T10:52:28;23.08;;;3.00;;
64282;SDS011;50497;50.720;-2.084;2022-12-24T10:57:45;15.85;;;2.45;;
64282;SDS011;50497;50.720;-2.084;2022-12-24T11:00:22;26.83;;;3.45;;
64282;SDS011;50497;50.720;-2.084;2022-12-24T11:02:49;22.50;;;4.22;;
64282;SDS011;50497;50.720;-2.084;2022-12-24T11:05:35;31.35;;;5.50;;
64282;SDS011;50497;50.720;-2.084;2022-12-24T11:08:02;28.20;;;4.78;;
64282;SDS011;50497;50.720;-2.084;2022-12-24T11:10:43;33.65;;;5.30;;
64282;SDS011;50497;50.720;-2.084;2022-12-24T11:13:23;31.50;;;4.75;;
64282;SDS011;50497;50.720;-2.084;2022-12-24T11:16:02;38.33;;;5.25;;
64282;SDS011;50497;50.720;-2.084;2022-12-24T11:18:42;36.38;;;5.07;;
64282;SDS011;50497;50.720;-2.084;2022-12-24T11:21:17;37.55;;;4.88;;
64282;SDS011;50497;50.720;-2.084;2022-12-24T11:23:48;29.63;;;4.88;;
64282;SDS011;50497;50.720;-2.084;2022-12-24T11:26:37;31.98;;;5.28;;
64282;SDS011;50497;50.720;-2.084;2022-12-24T11:29:24;35.70;;;4.50;;
64282;SDS011;50497;50.720;-2.084;2022-12-24T11:31:52;39.40;;;4.90;;
64282;SDS011;50497;50.720;-2.084;2022-12-24T11:34:43;32.60;;;4.35;;
64282;SDS011;50497;50.720;-2.084;2022-12-24T11:40:35;19.80;;;3.67;;
64282;SDS011;50497;50.720;-2.084;2022-12-24T11:43:04;30.17;;;4.28;;
64282;SDS011;50497;50.720;-2.084;2022-12-24T11:45:31;33.42;;;4.00;;
64282;SDS011;50497;50.720;-2.084;2022-12-24T11:47:58;26.88;;;4.13;;
64282;SDS011;50497;50.720;-2.084;2022-12-24T11:50:34;32.20;;;4.28;;
64282;SDS011;50497;50.720;-2.084;2022-12-24T11:53:19;32.90;;;4.47;;
64282;SDS011;50497;50.720;-2.084;2022-12-24T11:55:52;29.70;;;4.82;;
64282;SDS011;50497;50.720;-2.084;2022-12-24T12:03:57;34.70;;;4.45;;
64282;SDS011;50497;50.720;-2.084;2022-12-24T12:08:56;30.00;;;4.03;;
64282;SDS011;50497;50.720;-2.084;2022-12-24T12:11:27;33.78;;;4.28;;
64282;SDS011;50497;50.720;-2.084;2022-12-24T12:13:53;37.92;;;6.03;;
64282;SDS011;50497;50.720;-2.084;2022-12-24T12:16:31;26.80;;;4.15;;
64282;SDS011;50497;50.720;-2.084;2022-12-24T12:19:51;29.60;;;3.85;;
64282;SDS011;50497;50.720;-2.084;2022-12-24T12:22:34;29.80;;;4.13;;
64282;SDS011;50497;50.720;-2.084;2022-12-24T12:25:25;35.38;;;4.43;;
64282;SDS011;50497;50.720;-2.084;2022-12-24T12:27:57;28.55;;;3.97;;
64282;SDS011;50497;50.720;-2.084;2022-12-24T12:30:36;27.65;;;3.85;;
64282;SDS011;50497;50.720;-2.084;2022-12-24T12:33:43;29.08;;;3.78;;
64282;SDS011;50497;50.720;-2.084;2022-12-24T12:36:12;32.97;;;5.25;;
64282;SDS011;50497;50.720;-2.084;2022-12-24T12:38:43;29.98;;;4.68;;
64282;SDS011;50497;50.720;-2.084;2022-12-24T12:41:20;33.28;;;5.25;;
64282;SDS011;50497;50.720;-2.084;2022-12-24T12:54:43;39.47;;;5.30;;
64282;SDS011;50497;50.720;-2.084;2022-12-24T12:57:12;29.65;;;4.55;;
64282;SDS011;50497;50.720;-2.084;2022-12-24T12:59:47;29.88;;;4.60;;
64282;SDS011;50497;50.720;-2.084;2022-12-24T13:02:40;27.50;;;4.63;;
64282;SDS011;50497;50.720;-2.084;2022-12-24T13:11:02;20.08;;;4.25;;
64282;SDS011;50497;50.720;-2.084;2022-12-24T13:21:59;27.75;;;4.28;;
64282;SDS011;50497;50.720;-2.084;2022-12-24T13:24:28;23.40;;;3.88;;
64282;SDS011;50497;50.720;-2.084;2022-12-24T13:29:56;28.88;;;4.10;;
64282;SDS011;50497;50.720;-2.084;2022-12-24T13:34:56;30.20;;;4.63;;
64282;SDS011;50497;50.720;-2.084;2022-12-24T13:37:34;30.38;;;4.60;;
64282;SDS011;50497;50.720;-2.084;2022-12-24T13:43:17;28.42;;;5.03;;
64282;SDS011;50497;50.720;-2.084;2022-12-24T13:58:29;31.00;;;6.72;;
64282;SDS011;50497;50.720;-2.084;2022-12-24T14:01:04;25.05;;;4.18;;
64282;SDS011;50497;50.720;-2.084;2022-12-24T14:06:09;35.03;;;6.95;;
64282;SDS011;50497;50.720;-2.084;2022-12-24T14:08:39;36.63;;;10.80;;
64282;SDS011;50497;50.720;-2.084;2022-12-24T14:11:12;30.00;;;6.20;;
64282;SDS011;50497;50.720;-2.084;2022-12-24T14:16:03;24.77;;;5.03;;
64282;SDS011;50497;50.720;-2.084;2022-12-24T14:18:37;23.42;;;5.15;;
64282;SDS011;50497;50.720;-2.084;2022-12-24T14:21:05;29.02;;;5.32;;
64282;SDS011;50497;50.720;-2.084;2022-12-24T14:23:54;27.88;;;4.15;;
64282;SDS011;50497;50.720;-2.084;2022-12-24T14:26:23;25.63;;;4.40;;
64282;SDS011;50497;50.720;-2.084;2022-12-24T14:28:53;33.92;;;5.68;;
64282;SDS011;50497;50.720;-2.084;2022-12-24T14:31:22;33.97;;;4.80;;
64282;SDS011;50497;50.720;-2.084;2022-12-24T14:33:48;25.27;;;4.40;;
64282;SDS011;50497;50.720;-2.084;2022-12-24T14:36:14;28.90;;;4.47;;
64282;SDS011;50497;50.720;-2.084;2022-12-24T14:38:44;27.02;;;5.03;;
64282;SDS011;50497;50.720;-2.084;2022-12-24T14:41:15;21.20;;;3.17;;
64282;SDS011;50497;50.720;-2.084;2022-12-24T14:44:08;17.75;;;3.47;;
64282;SDS011;50497;50.720;-2.084;2022-12-24T14:54:41;14.43;;;2.80;;
64282;SDS011;50497;50.720;-2.084;2022-12-24T15:00:17;18.98;;;3.60;;
64282;SDS011;50497;50.720;-2.084;2022-12-24T15:02:44;21.42;;;3.50;;
64282;SDS011;50497;50.720;-2.084;2022-12-24T15:05:12;26.10;;;4.22;;
64282;SDS011;50497;50.720;-2.084;2022-12-24T15:07:40;24.10;;;3.70;;
64282;SDS011;50497;50.720;-2.084;2022-12-24T15:15:58;21.15;;;3.75;;
64282;SDS011;50497;50.720;-2.084;2022-12-24T15:18:25;20.30;;;3.88;;
64282;SDS011;50497;50.720;-2.084;2022-12-24T15:20:54;21.38;;;4.05;;
64282;SDS011;50497;50.720;-2.084;2022-12-24T15:23:30;23.13;;;7.07;;
64282;SDS011;50497;50.720;-2.084;2022-12-24T15:26:08;18.15;;;3.55;;
64282;SDS011;50497;50.720;-2.084;2022-12-24T15:28:38;16.25;;;4.28;;
64282;SDS011;50497;50.720;-2.084;2022-12-24T15:31:09;23.65;;;3.72;;
64282;SDS011;50497;50.720;-2.084;2022-12-24T15:33:37;20.00;;;3.20;;
64282;SDS011;50497;50.720;-2.084;2022-12-24T15:36:03;19.88;;;3.58;;
64282;SDS011;50497;50.720;-2.084;2022-12-24T15:38:34;18.67;;;3.20;;
64282;SDS011;50497;50.720;-2.084;2022-12-24T15:41:03;23.75;;;4.75;;
64282;SDS011;50497;50.720;-2.084;2022-12-24T15:43:44;19.95;;;3.30;;
64282;SDS011;50497;50.720;-2.084;2022-12-24T15:46:21;18.95;;;3.85;;
64282;SDS011;50497;50.720;-2.084;2022-12-24T15:48:53;19.63;;;3.35;;
64282;SDS011;50497;50.720;-2.084;2022-12-24T15:51:23;12.63;;;2.70;;
64282;SDS011;50497;50.720;-2.084;2022-12-24T15:54:00;17.02;;;3.10;;
64282;SDS011;50497;50.720;-2.084;2022-12-24T15:56:35;19.10;;;2.50;;
64282;SDS011;50497;50.720;-2.084;2022-12-24T16:01:44;17.52;;;2.88;;
64282;SDS011;50497;50.720;-2.084;2022-12-24T16:04:15;16.85;;;3.10;;
64282;SDS011;50497;50.720;-2.084;2022-12-24T16:12:00;13.35;;;4.70;;
64282;SDS011;50497;50.720;-2.084;2022-12-24T16:14:27;17.98;;;4.75;;
64282;SDS011;50497;50.720;-2.084;2022-12-24T16:19:28;16.55;;;6.47;;
64282;SDS011;50497;50.720;-2.084;2022-12-24T16:21:56;18.83;;;6.40;;
64282;SDS011;50497;50.720;-2.084;2022-12-24T16:24:44;16.02;;;6.50;;
64282;SDS011;50497;50.720;-2.084;2022-12-24T16:27:10;18.02;;;4.80;;
64282;SDS011;50497;50.720;-2.084;2022-12-24T16:29:38;19.30;;;4.50;;
64282;SDS011;50497;50.720;-2.084;2022-12-24T16:32:28;12.80;;;3.58;;
64282;SDS011;50497;50.720;-2.084;2022-12-24T16:35:06;13.90;;;4.50;;
64282;SDS011;50497;50.720;-2.084;2022-12-24T16:37:57;14.85;;;3.17;;
64282;SDS011;50497;50.720;-2.084;2022-12-24T16:40:26;14.13;;;4.75;;
64282;SDS011;50497;50.720;-2.084;2022-12-24T16:42:52;15.30;;;4.10;;
64282;SDS011;50497;50.720;-2.084;2022-12-24T16:45:36;14.63;;;2.90;;
64282;SDS011;50497;50.720;-2.084;2022-12-24T16:48:02;19.42;;;3.67;;
64282;SDS011;50497;50.720;-2.084;2022-12-24T16:50:30;17.45;;;2.78;;
64282;SDS011;50497;50.720;-2.084;2022-12-24T16:52:56;9.30;;;2.20;;
64282;SDS011;50497;50.720;-2.084;2022-12-24T16:55:21;14.13;;;2.92;;
64282;SDS011;50497;50.720;-2.084;2022-12-24T16:57:46;13.50;;;2.55;;
64282;SDS011;50497;50.720;-2.084;2022-12-24T17:00:16;16.35;;;2.80;;
64282;SDS011;50497;50.720;-2.084;2022-12-24T17:02:44;12.10;;;2.63;;
64282;SDS011;50497;50.720;-2.084;2022-12-24T17:05:10;15.80;;;2.80;;
64282;SDS011;50497;50.720;-2.084;2022-12-24T17:07:37;11.95;;;2.03;;
64282;SDS011;50497;50.720;-2.084;2022-12-24T17:10:02;12.70;;;2.13;;
64282;SDS011;50497;50.720;-2.084;2022-12-24T17:12:28;12.27;;;2.40;;
64282;SDS011;50497;50.720;-2.084;2022-12-24T17:14:54;15.38;;;3.63;;
64282;SDS011;50497;50.720;-2.084;2022-12-24T17:17:23;12.80;;;2.75;;